sensor_id;sensor_type;location;lat;lon;timestamp;temperature;humidity
28608;DHT22;15802;45.654;13.804;2023-04-01T00:00:24;10.90;99.90
28608;DHT22;15802;45.654;13.804;2023-04-01T00:02:50;10.90;99.90
28608;DHT22;15802;45.654;13.804;2023-04-01T00:05:16;10.90;99.90
28608;DHT22;15802;45.654;13.804;2023-04-01T00:07:42;10.90;99.90
28608;DHT22;15802;45.654;13.804;2023-04-01T00:10:09;11.00;99.90
28608;DHT22;15802;45.654;13.804;2023-04-01T00:12:35;11.00;99.90
28608;DHT22;15802;45.654;13.804;2023-04-01T00:15:02;11.00;99.90
28608;DHT22;15802;45.654;13.804;2023-04-01T00:17:28;11.00;99.90
28608;DHT22;15802;45.654;13.804;2023-04-01T00:19:55;11.00;99.90
28608;DHT22;15802;45.654;13.804;2023-04-01T00:22:21;10.90;99.90
28608;DHT22;15802;45.654;13.804;2023-04-01T00:24:47;10.90;99.90
28608;DHT22;15802;45.654;13.804;2023-04-01T00:27:13;10.80;99.90
28608;DHT22;15802;45.654;13.804;2023-04-01T00:29:41;10.80;99.90
28608;DHT22;15802;45.654;13.804;2023-04-01T00:32:07;10.70;99.90
28608;DHT22;15802;45.654;13.804;2023-04-01T00:34:33;10.70;99.90
28608;DHT22;15802;45.654;13.804;2023-04-01T00:36:59;10.70;99.90
28608;DHT22;15802;45.654;13.804;2023-04-01T00:39:24;10.60;99.90
28608;DHT22;15802;45.654;13.804;2023-04-01T00:41:51;10.60;99.90
28608;DHT22;15802;45.654;13.804;2023-04-01T00:44:19;10.60;99.90
28608;DHT22;15802;45.654;13.804;2023-04-01T00:46:45;10.60;99.90
28608;DHT22;15802;45.654;13.804;2023-04-01T00:49:11;10.70;99.90
28608;DHT22;15802;45.654;13.804;2023-04-01T00:51:37;10.70;99.90
28608;DHT22;15802;45.654;13.804;2023-04-01T00:54:04;10.70;99.90
28608;DHT22;15802;45.654;13.804;2023-04-01T00:56:32;10.70;99.90
28608;DHT22;15802;45.654;13.804;2023-04-01T00:59:02;10.80;99.90
28608;DHT22;15802;45.654;13.804;2023-04-01T01:01:30;10.80;99.90
28608;DHT22;15802;45.654;13.804;2023-04-01T01:03:56;10.80;99.90
28608;DHT22;15802;45.654;13.804;2023-04-01T01:09:10;10.80;99.90
28608;DHT22;15802;45.654;13.804;2023-04-01T01:11:40;10.90;99.90
28608;DHT22;15802;45.654;13.804;2023-04-01T01:14:19;10.90;99.90
28608;DHT22;15802;45.654;13.804;2023-04-01T01:16:53;10.90;99.90
28608;DHT22;15802;45.654;13.804;2023-04-01T01:19:29;10.90;99.90
28608;DHT22;15802;45.654;13.804;2023-04-01T01:22:04;10.90;99.90
28608;DHT22;15802;45.654;13.804;2023-04-01T01:24:41;10.90;99.90
28608;DHT22;15802;45.654;13.804;2023-04-01T01:27:10;10.80;99.90
28608;DHT22;15802;45.654;13.804;2023-04-01T01:32:30;10.90;99.90
28608;DHT22;15802;45.654;13.804;2023-04-01T01:37:46;11.00;99.90
28608;DHT22;15802;45.654;13.804;2023-04-01T01:40:14;11.00;99.90
28608;DHT22;15802;45.654;13.804;2023-04-01T01:42:42;11.10;99.90
28608;DHT22;15802;45.654;13.804;2023-04-01T01:45:09;11.10;99.90
28608;DHT22;15802;45.654;13.804;2023-04-01T01:47:35;11.20;99.90
28608;DHT22;15802;45.654;13.804;2023-04-01T01:50:01;11.30;99.90
28608;DHT22;15802;45.654;13.804;2023-04-01T01:52:28;11.30;99.90
28608;DHT22;15802;45.654;13.804;2023-04-01T01:54:55;11.30;99.90
28608;DHT22;15802;45.654;13.804;2023-04-01T01:57:23;11.30;99.90
28608;DHT22;15802;45.654;13.804;2023-04-01T01:59:51;11.30;99.90
28608;DHT22;15802;45.654;13.804;2023-04-01T02:02:18;11.40;99.90
28608;DHT22;15802;45.654;13.804;2023-04-01T02:04:44;11.40;99.90
28608;DHT22;15802;45.654;13.804;2023-04-01T02:07:15;11.40;99.90
28608;DHT22;15802;45.654;13.804;2023-04-01T02:09:41;11.40;99.90
28608;DHT22;15802;45.654;13.804;2023-04-01T02:12:09;11.40;99.90
28608;DHT22;15802;45.654;13.804;2023-04-01T02:14:39;11.50;99.90
28608;DHT22;15802;45.654;13.804;2023-04-01T02:17:08;11.40;99.90
28608;DHT22;15802;45.654;13.804;2023-04-01T02:19:39;11.40;99.90
28608;DHT22;15802;45.654;13.804;2023-04-01T02:22:08;11.40;99.90
28608;DHT22;15802;45.654;13.804;2023-04-01T02:24:34;11.50;99.90
28608;DHT22;15802;45.654;13.804;2023-04-01T02:27:00;11.50;99.90
28608;DHT22;15802;45.654;13.804;2023-04-01T02:29:26;11.50;99.90
28608;DHT22;15802;45.654;13.804;2023-04-01T02:31:52;11.60;99.90
28608;DHT22;15802;45.654;13.804;2023-04-01T02:34:19;11.60;99.90
28608;DHT22;15802;45.654;13.804;2023-04-01T02:36:44;11.60;99.90
28608;DHT22;15802;45.654;13.804;2023-04-01T02:39:11;11.60;99.90
28608;DHT22;15802;45.654;13.804;2023-04-01T02:41:41;11.60;99.90
28608;DHT22;15802;45.654;13.804;2023-04-01T02:44:07;11.70;99.90
28608;DHT22;15802;45.654;13.804;2023-04-01T02:46:32;11.70;99.90
28608;DHT22;15802;45.654;13.804;2023-04-01T02:48:58;11.60;99.90
28608;DHT22;15802;45.654;13.804;2023-04-01T02:51:25;11.60;99.90
28608;DHT22;15802;45.654;13.804;2023-04-01T02:53:50;11.50;99.90
28608;DHT22;15802;45.654;13.804;2023-04-01T02:56:16;11.50;99.90
28608;DHT22;15802;45.654;13.804;2023-04-01T02:58:42;11.50;99.90
28608;DHT22;15802;45.654;13.804;2023-04-01T03:01:08;11.50;99.90
28608;DHT22;15802;45.654;13.804;2023-04-01T03:03:33;11.50;99.90
28608;DHT22;15802;45.654;13.804;2023-04-01T03:06:04;11.50;99.90
28608;DHT22;15802;45.654;13.804;2023-04-01T03:08:30;11.50;99.90
28608;DHT22;15802;45.654;13.804;2023-04-01T03:10:55;11.50;99.90
28608;DHT22;15802;45.654;13.804;2023-04-01T03:13:21;11.50;99.90
28608;DHT22;15802;45.654;13.804;2023-04-01T03:15:48;11.40;99.90
28608;DHT22;15802;45.654;13.804;2023-04-01T03:18:13;11.40;99.90
28608;DHT22;15802;45.654;13.804;2023-04-01T03:20:39;11.40;99.90
28608;DHT22;15802;45.654;13.804;2023-04-01T03:23:05;11.40;99.90
28608;DHT22;15802;45.654;13.804;2023-04-01T03:25:31;11.40;99.90
28608;DHT22;15802;45.654;13.804;2023-04-01T03:27:57;11.40;99.90
28608;DHT22;15802;45.654;13.804;2023-04-01T03:30:25;11.40;99.90
28608;DHT22;15802;45.654;13.804;2023-04-01T03:32:51;11.40;99.90
28608;DHT22;15802;45.654;13.804;2023-04-01T03:35:16;11.40;99.90
28608;DHT22;15802;45.654;13.804;2023-04-01T03:37:42;11.40;99.90
28608;DHT22;15802;45.654;13.804;2023-04-01T03:40:08;11.40;99.90
28608;DHT22;15802;45.654;13.804;2023-04-01T03:42:34;11.40;99.90
28608;DHT22;15802;45.654;13.804;2023-04-01T03:45:00;11.40;99.90
28608;DHT22;15802;45.654;13.804;2023-04-01T03:47:26;11.40;99.90
28608;DHT22;15802;45.654;13.804;2023-04-01T03:49:52;11.40;99.90
28608;DHT22;15802;45.654;13.804;2023-04-01T03:52:17;11.40;99.90
28608;DHT22;15802;45.654;13.804;2023-04-01T03:54:43;11.40;99.90
28608;DHT22;15802;45.654;13.804;2023-04-01T03:57:09;11.40;99.90
28608;DHT22;15802;45.654;13.804;2023-04-01T03:59:34;11.40;99.90
28608;DHT22;15802;45.654;13.804;2023-04-01T04:02:00;11.30;99.90
28608;DHT22;15802;45.654;13.804;2023-04-01T04:04:26;11.30;99.90
28608;DHT22;15802;45.654;13.804;2023-04-01T04:06:52;11.30;99.90
28608;DHT22;15802;45.654;13.804;2023-04-01T04:09:17;11.20;99.90
28608;DHT22;15802;45.654;13.804;2023-04-01T04:11:45;11.20;99.90
28608;DHT22;15802;45.654;13.804;2023-04-01T04:14:11;11.20;99.90
28608;DHT22;15802;45.654;13.804;2023-04-01T04:16:37;11.20;99.90
28608;DHT22;15802;45.654;13.804;2023-04-01T04:19:03;11.20;99.90
28608;DHT22;15802;45.654;13.804;2023-04-01T04:21:28;11.10;99.90
28608;DHT22;15802;45.654;13.804;2023-04-01T04:23:54;11.00;99.90
28608;DHT22;15802;45.654;13.804;2023-04-01T04:26:20;10.90;99.90
28608;DHT22;15802;45.654;13.804;2023-04-01T04:28:48;10.80;99.90
28608;DHT22;15802;45.654;13.804;2023-04-01T04:31:18;10.80;99.90
28608;DHT22;15802;45.654;13.804;2023-04-01T04:33:44;10.80;99.90
28608;DHT22;15802;45.654;13.804;2023-04-01T04:36:10;10.80;99.90
28608;DHT22;15802;45.654;13.804;2023-04-01T04:38:36;10.70;99.90
28608;DHT22;15802;45.654;13.804;2023-04-01T04:41:01;10.50;99.90
28608;DHT22;15802;45.654;13.804;2023-04-01T04:43:27;10.40;99.90
28608;DHT22;15802;45.654;13.804;2023-04-01T04:45:53;10.30;99.90
28608;DHT22;15802;45.654;13.804;2023-04-01T04:48:18;10.30;99.90
28608;DHT22;15802;45.654;13.804;2023-04-01T04:50:46;10.20;99.90
28608;DHT22;15802;45.654;13.804;2023-04-01T04:53:12;10.10;99.90
28608;DHT22;15802;45.654;13.804;2023-04-01T04:55:42;10.00;99.90
28608;DHT22;15802;45.654;13.804;2023-04-01T04:58:08;10.00;99.90
28608;DHT22;15802;45.654;13.804;2023-04-01T05:00:33;9.90;99.90
28608;DHT22;15802;45.654;13.804;2023-04-01T05:02:59;9.90;99.90
28608;DHT22;15802;45.654;13.804;2023-04-01T05:05:25;9.90;99.90
28608;DHT22;15802;45.654;13.804;2023-04-01T05:07:50;9.80;99.90
28608;DHT22;15802;45.654;13.804;2023-04-01T05:10:16;9.80;99.90
28608;DHT22;15802;45.654;13.804;2023-04-01T05:12:42;9.80;99.90
28608;DHT22;15802;45.654;13.804;2023-04-01T05:15:08;9.70;99.90
28608;DHT22;15802;45.654;13.804;2023-04-01T05:17:34;9.70;99.90
28608;DHT22;15802;45.654;13.804;2023-04-01T05:19:59;9.70;99.90
28608;DHT22;15802;45.654;13.804;2023-04-01T05:22:25;9.70;99.90
28608;DHT22;15802;45.654;13.804;2023-04-01T05:24:51;9.70;99.90
28608;DHT22;15802;45.654;13.804;2023-04-01T05:27:17;9.70;99.90
28608;DHT22;15802;45.654;13.804;2023-04-01T05:29:42;9.70;99.90
28608;DHT22;15802;45.654;13.804;2023-04-01T05:32:08;9.80;99.90
28608;DHT22;15802;45.654;13.804;2023-04-01T05:34:34;9.80;99.90
28608;DHT22;15802;45.654;13.804;2023-04-01T05:37:00;9.80;99.90
28608;DHT22;15802;45.654;13.804;2023-04-01T05:39:25;9.80;99.90
28608;DHT22;15802;45.654;13.804;2023-04-01T05:41:51;9.80;99.90
28608;DHT22;15802;45.654;13.804;2023-04-01T05:44:17;9.70;99.90
28608;DHT22;15802;45.654;13.804;2023-04-01T05:46:43;9.80;99.90
28608;DHT22;15802;45.654;13.804;2023-04-01T05:49:08;9.80;99.90
28608;DHT22;15802;45.654;13.804;2023-04-01T05:51:34;9.80;99.90
28608;DHT22;15802;45.654;13.804;2023-04-01T05:54:00;9.90;99.90
28608;DHT22;15802;45.654;13.804;2023-04-01T05:56:25;10.00;99.90
28608;DHT22;15802;45.654;13.804;2023-04-01T05:58:52;10.10;99.90
28608;DHT22;15802;45.654;13.804;2023-04-01T06:01:19;10.20;99.90
28608;DHT22;15802;45.654;13.804;2023-04-01T06:03:44;10.20;99.90
28608;DHT22;15802;45.654;13.804;2023-04-01T06:06:13;10.40;99.90
28608;DHT22;15802;45.654;13.804;2023-04-01T06:08:40;10.40;99.90
28608;DHT22;15802;45.654;13.804;2023-04-01T06:11:19;10.50;99.90
28608;DHT22;15802;45.654;13.804;2023-04-01T06:13:57;10.60;99.90
28608;DHT22;15802;45.654;13.804;2023-04-01T06:16:38;10.50;99.90
28608;DHT22;15802;45.654;13.804;2023-04-01T06:19:13;10.60;99.90
28608;DHT22;15802;45.654;13.804;2023-04-01T06:21:52;10.60;99.90
28608;DHT22;15802;45.654;13.804;2023-04-01T06:27:16;10.80;99.90
28608;DHT22;15802;45.654;13.804;2023-04-01T06:29:50;10.90;99.90
28608;DHT22;15802;45.654;13.804;2023-04-01T06:32:22;11.00;99.90
28608;DHT22;15802;45.654;13.804;2023-04-01T06:34:57;11.00;99.90
28608;DHT22;15802;45.654;13.804;2023-04-01T06:37:48;11.10;99.90
28608;DHT22;15802;45.654;13.804;2023-04-01T06:40:19;11.20;99.90
28608;DHT22;15802;45.654;13.804;2023-04-01T06:43:08;11.20;99.90
28608;DHT22;15802;45.654;13.804;2023-04-01T06:45:59;11.30;99.90
28608;DHT22;15802;45.654;13.804;2023-04-01T06:48:31;11.30;99.90
28608;DHT22;15802;45.654;13.804;2023-04-01T06:51:07;11.40;99.90
28608;DHT22;15802;45.654;13.804;2023-04-01T06:53:44;11.60;99.90
28608;DHT22;15802;45.654;13.804;2023-04-01T06:56:14;11.60;99.90
28608;DHT22;15802;45.654;13.804;2023-04-01T06:58:42;11.70;99.90
28608;DHT22;15802;45.654;13.804;2023-04-01T07:01:11;11.70;99.90
28608;DHT22;15802;45.654;13.804;2023-04-01T07:03:40;11.80;99.90
28608;DHT22;15802;45.654;13.804;2023-04-01T07:06:08;11.80;99.90
28608;DHT22;15802;45.654;13.804;2023-04-01T07:08:38;11.90;99.90
28608;DHT22;15802;45.654;13.804;2023-04-01T07:11:08;11.90;99.90
28608;DHT22;15802;45.654;13.804;2023-04-01T07:16:40;12.10;99.90
28608;DHT22;15802;45.654;13.804;2023-04-01T07:19:09;12.20;99.90
28608;DHT22;15802;45.654;13.804;2023-04-01T07:21:46;12.30;99.90
28608;DHT22;15802;45.654;13.804;2023-04-01T07:26:57;12.50;99.90
28608;DHT22;15802;45.654;13.804;2023-04-01T07:29:23;12.60;99.90
28608;DHT22;15802;45.654;13.804;2023-04-01T07:31:55;12.60;99.90
28608;DHT22;15802;45.654;13.804;2023-04-01T07:34:23;12.70;99.90
28608;DHT22;15802;45.654;13.804;2023-04-01T07:37:06;12.80;99.90
28608;DHT22;15802;45.654;13.804;2023-04-01T07:39:40;12.90;99.90
28608;DHT22;15802;45.654;13.804;2023-04-01T07:42:15;13.10;99.90
28608;DHT22;15802;45.654;13.804;2023-04-01T07:44:54;13.20;99.90
28608;DHT22;15802;45.654;13.804;2023-04-01T07:50:16;13.30;99.90
28608;DHT22;15802;45.654;13.804;2023-04-01T07:52:48;13.50;99.90
28608;DHT22;15802;45.654;13.804;2023-04-01T07:55:23;13.70;99.90
28608;DHT22;15802;45.654;13.804;2023-04-01T07:57:55;13.80;99.90
28608;DHT22;15802;45.654;13.804;2023-04-01T08:00:27;13.80;99.90
28608;DHT22;15802;45.654;13.804;2023-04-01T08:02:59;13.80;99.90
28608;DHT22;15802;45.654;13.804;2023-04-01T08:05:30;13.80;99.90
28608;DHT22;15802;45.654;13.804;2023-04-01T08:08:01;13.70;99.90
28608;DHT22;15802;45.654;13.804;2023-04-01T08:10:34;13.70;99.90
28608;DHT22;15802;45.654;13.804;2023-04-01T08:13:12;13.80;99.90
28608;DHT22;15802;45.654;13.804;2023-04-01T08:15:52;13.80;99.90
28608;DHT22;15802;45.654;13.804;2023-04-01T08:18:31;13.90;99.90
28608;DHT22;15802;45.654;13.804;2023-04-01T08:21:02;14.10;99.90
28608;DHT22;15802;45.654;13.804;2023-04-01T08:23:31;14.20;99.90
28608;DHT22;15802;45.654;13.804;2023-04-01T08:26:19;14.20;99.90
28608;DHT22;15802;45.654;13.804;2023-04-01T08:29:07;14.30;99.90
28608;DHT22;15802;45.654;13.804;2023-04-01T08:31:40;14.40;99.90
28608;DHT22;15802;45.654;13.804;2023-04-01T08:34:12;14.50;99.90
28608;DHT22;15802;45.654;13.804;2023-04-01T08:36:42;14.50;99.90
28608;DHT22;15802;45.654;13.804;2023-04-01T08:39:12;14.60;99.90
28608;DHT22;15802;45.654;13.804;2023-04-01T08:41:47;14.50;99.90
28608;DHT22;15802;45.654;13.804;2023-04-01T08:44:27;14.60;99.90
28608;DHT22;15802;45.654;13.804;2023-04-01T08:49:46;14.70;99.90
28608;DHT22;15802;45.654;13.804;2023-04-01T08:55:02;14.70;99.90
28608;DHT22;15802;45.654;13.804;2023-04-01T08:57:35;14.60;99.90
28608;DHT22;15802;45.654;13.804;2023-04-01T09:00:10;14.60;99.90
28608;DHT22;15802;45.654;13.804;2023-04-01T09:02:54;14.50;99.90
28608;DHT22;15802;45.654;13.804;2023-04-01T09:05:26;14.60;99.90
28608;DHT22;15802;45.654;13.804;2023-04-01T09:10:45;14.50;99.90
28608;DHT22;15802;45.654;13.804;2023-04-01T09:13:19;14.50;99.90
28608;DHT22;15802;45.654;13.804;2023-04-01T09:15:54;14.60;99.90
28608;DHT22;15802;45.654;13.804;2023-04-01T09:18:31;14.70;99.90
28608;DHT22;15802;45.654;13.804;2023-04-01T09:21:12;14.70;99.90
28608;DHT22;15802;45.654;13.804;2023-04-01T09:29:29;15.00;99.90
28608;DHT22;15802;45.654;13.804;2023-04-01T09:32:01;15.00;99.90
28608;DHT22;15802;45.654;13.804;2023-04-01T09:34:37;15.00;99.90
28608;DHT22;15802;45.654;13.804;2023-04-01T09:40:02;15.00;99.90
28608;DHT22;15802;45.654;13.804;2023-04-01T09:42:41;15.10;99.90
28608;DHT22;15802;45.654;13.804;2023-04-01T09:53:34;15.40;99.90
28608;DHT22;15802;45.654;13.804;2023-04-01T09:58:51;15.70;99.90
28608;DHT22;15802;45.654;13.804;2023-04-01T10:04:14;15.90;99.90
28608;DHT22;15802;45.654;13.804;2023-04-01T10:06:54;16.00;99.90
28608;DHT22;15802;45.654;13.804;2023-04-01T10:09:29;16.00;99.90
28608;DHT22;15802;45.654;13.804;2023-04-01T10:15:11;16.30;99.90
28608;DHT22;15802;45.654;13.804;2023-04-01T10:17:44;16.40;99.90
28608;DHT22;15802;45.654;13.804;2023-04-01T10:23:31;16.30;99.90
28608;DHT22;15802;45.654;13.804;2023-04-01T10:26:10;16.40;99.90
28608;DHT22;15802;45.654;13.804;2023-04-01T10:28:50;16.50;99.90
28608;DHT22;15802;45.654;13.804;2023-04-01T10:34:19;16.50;99.90
28608;DHT22;15802;45.654;13.804;2023-04-01T10:36:54;16.50;99.90
28608;DHT22;15802;45.654;13.804;2023-04-01T10:53:12;16.90;99.90
28608;DHT22;15802;45.654;13.804;2023-04-01T10:58:39;16.90;99.90
28608;DHT22;15802;45.654;13.804;2023-04-01T11:07:05;16.80;99.90
28608;DHT22;15802;45.654;13.804;2023-04-01T11:09:44;16.80;99.90
28608;DHT22;15802;45.654;13.804;2023-04-01T11:12:30;16.70;99.90
28608;DHT22;15802;45.654;13.804;2023-04-01T11:15:06;16.80;99.90
28608;DHT22;15802;45.654;13.804;2023-04-01T11:20:31;16.80;99.90
28608;DHT22;15802;45.654;13.804;2023-04-01T11:23:18;16.90;99.90
28608;DHT22;15802;45.654;13.804;2023-04-01T11:25:56;17.10;99.90
28608;DHT22;15802;45.654;13.804;2023-04-01T11:28:30;17.10;99.90
28608;DHT22;15802;45.654;13.804;2023-04-01T11:31:04;17.20;99.90
28608;DHT22;15802;45.654;13.804;2023-04-01T11:33:39;17.30;99.90
28608;DHT22;15802;45.654;13.804;2023-04-01T11:38:56;17.50;99.90
28608;DHT22;15802;45.654;13.804;2023-04-01T11:41:26;17.50;99.90
28608;DHT22;15802;45.654;13.804;2023-04-01T11:46:51;17.40;99.90
28608;DHT22;15802;45.654;13.804;2023-04-01T11:49:29;17.30;99.90
28608;DHT22;15802;45.654;13.804;2023-04-01T11:52:01;17.20;99.90
28608;DHT22;15802;45.654;13.804;2023-04-01T12:00:12;17.50;99.90
28608;DHT22;15802;45.654;13.804;2023-04-01T12:02:52;17.50;99.90
28608;DHT22;15802;45.654;13.804;2023-04-01T12:08:32;17.50;99.90
28608;DHT22;15802;45.654;13.804;2023-04-01T12:11:00;17.60;99.90
28608;DHT22;15802;45.654;13.804;2023-04-01T12:16:27;17.70;99.90
28608;DHT22;15802;45.654;13.804;2023-04-01T12:18:59;17.80;99.90
28608;DHT22;15802;45.654;13.804;2023-04-01T12:21:44;17.70;99.90
28608;DHT22;15802;45.654;13.804;2023-04-01T12:24:24;17.60;99.90
28608;DHT22;15802;45.654;13.804;2023-04-01T12:27:10;17.70;99.90
28608;DHT22;15802;45.654;13.804;2023-04-01T12:32:24;17.90;99.90
28608;DHT22;15802;45.654;13.804;2023-04-01T12:37:41;18.20;99.90
28608;DHT22;15802;45.654;13.804;2023-04-01T12:48:27;18.50;99.90
28608;DHT22;15802;45.654;13.804;2023-04-01T12:56:33;18.50;99.90
28608;DHT22;15802;45.654;13.804;2023-04-01T12:59:17;18.50;99.90
28608;DHT22;15802;45.654;13.804;2023-04-01T13:04:32;18.80;99.90
28608;DHT22;15802;45.654;13.804;2023-04-01T13:07:13;19.00;99.90
28608;DHT22;15802;45.654;13.804;2023-04-01T13:18:00;19.10;99.90
28608;DHT22;15802;45.654;13.804;2023-04-01T13:23:24;19.10;99.90
28608;DHT22;15802;45.654;13.804;2023-04-01T13:25:55;19.00;99.90
28608;DHT22;15802;45.654;13.804;2023-04-01T13:28:28;19.00;99.90
28608;DHT22;15802;45.654;13.804;2023-04-01T13:30:59;18.80;99.90
28608;DHT22;15802;45.654;13.804;2023-04-01T13:33:46;18.60;99.90
28608;DHT22;15802;45.654;13.804;2023-04-01T13:36:16;18.50;99.90
28608;DHT22;15802;45.654;13.804;2023-04-01T13:38:53;18.30;99.90
28608;DHT22;15802;45.654;13.804;2023-04-01T13:41:31;18.10;99.90
28608;DHT22;15802;45.654;13.804;2023-04-01T13:44:09;18.30;99.90
28608;DHT22;15802;45.654;13.804;2023-04-01T13:46:41;18.30;99.90
28608;DHT22;15802;45.654;13.804;2023-04-01T13:49:16;18.40;99.90
28608;DHT22;15802;45.654;13.804;2023-04-01T13:51:56;18.40;99.90
28608;DHT22;15802;45.654;13.804;2023-04-01T13:57:22;18.50;99.90
28608;DHT22;15802;45.654;13.804;2023-04-01T14:00:27;18.60;99.90
28608;DHT22;15802;45.654;13.804;2023-04-01T14:05:28;18.80;99.90
28608;DHT22;15802;45.654;13.804;2023-04-01T14:08:03;18.60;99.90
28608;DHT22;15802;45.654;13.804;2023-04-01T14:13:23;18.50;99.90
28608;DHT22;15802;45.654;13.804;2023-04-01T14:15:57;19.20;99.90
28608;DHT22;15802;45.654;13.804;2023-04-01T14:21:23;19.50;99.90
28608;DHT22;15802;45.654;13.804;2023-04-01T14:23:57;19.70;99.90
28608;DHT22;15802;45.654;13.804;2023-04-01T14:29:16;20.00;99.90
28608;DHT22;15802;45.654;13.804;2023-04-01T14:31:51;19.30;99.90
28608;DHT22;15802;45.654;13.804;2023-04-01T14:34:29;19.10;99.90
28608;DHT22;15802;45.654;13.804;2023-04-01T14:37:06;19.30;99.90
28608;DHT22;15802;45.654;13.804;2023-04-01T14:39:43;19.40;99.90
28608;DHT22;15802;45.654;13.804;2023-04-01T14:42:23;19.80;99.90
28608;DHT22;15802;45.654;13.804;2023-04-01T14:45:02;20.30;99.90
28608;DHT22;15802;45.654;13.804;2023-04-01T14:50:21;20.00;99.90
28608;DHT22;15802;45.654;13.804;2023-04-01T14:52:55;19.60;99.90
28608;DHT22;15802;45.654;13.804;2023-04-01T14:58:08;18.80;99.90
28608;DHT22;15802;45.654;13.804;2023-04-01T15:00:42;18.80;99.90
28608;DHT22;15802;45.654;13.804;2023-04-01T15:03:14;18.90;99.90
28608;DHT22;15802;45.654;13.804;2023-04-01T15:08:29;18.50;99.90
28608;DHT22;15802;45.654;13.804;2023-04-01T15:11:14;18.40;99.90
28608;DHT22;15802;45.654;13.804;2023-04-01T15:13:52;18.30;99.90
28608;DHT22;15802;45.654;13.804;2023-04-01T15:16:41;18.30;99.90
28608;DHT22;15802;45.654;13.804;2023-04-01T15:19:23;18.20;99.90
28608;DHT22;15802;45.654;13.804;2023-04-01T15:21:56;18.00;99.90
28608;DHT22;15802;45.654;13.804;2023-04-01T15:27:34;18.00;99.90
28608;DHT22;15802;45.654;13.804;2023-04-01T15:30:14;17.80;99.90
28608;DHT22;15802;45.654;13.804;2023-04-01T15:32:48;17.60;99.90
28608;DHT22;15802;45.654;13.804;2023-04-01T15:35:36;17.60;99.90
28608;DHT22;15802;45.654;13.804;2023-04-01T15:38:17;17.70;99.90
28608;DHT22;15802;45.654;13.804;2023-04-01T15:40:47;17.30;99.90
28608;DHT22;15802;45.654;13.804;2023-04-01T15:48:48;17.40;99.90
28608;DHT22;15802;45.654;13.804;2023-04-01T15:51:23;17.60;99.90
28608;DHT22;15802;45.654;13.804;2023-04-01T15:53:56;17.90;99.90
28608;DHT22;15802;45.654;13.804;2023-04-01T15:59:15;18.30;99.90
28608;DHT22;15802;45.654;13.804;2023-04-01T16:01:48;18.40;99.90
28608;DHT22;15802;45.654;13.804;2023-04-01T16:04:36;18.40;99.90
28608;DHT22;15802;45.654;13.804;2023-04-01T16:07:10;18.50;99.90
28608;DHT22;15802;45.654;13.804;2023-04-01T16:09:42;18.50;99.90
28608;DHT22;15802;45.654;13.804;2023-04-01T16:12:15;18.50;99.90
28608;DHT22;15802;45.654;13.804;2023-04-01T16:14:46;18.40;99.90
28608;DHT22;15802;45.654;13.804;2023-04-01T16:17:36;18.10;99.90
28608;DHT22;15802;45.654;13.804;2023-04-01T16:20:15;17.90;99.90
28608;DHT22;15802;45.654;13.804;2023-04-01T16:22:45;17.70;99.90
28608;DHT22;15802;45.654;13.804;2023-04-01T16:25:17;17.60;99.90
28608;DHT22;15802;45.654;13.804;2023-04-01T16:27:47;17.50;99.90
28608;DHT22;15802;45.654;13.804;2023-04-01T16:30:22;17.40;99.90
28608;DHT22;15802;45.654;13.804;2023-04-01T16:32:51;17.30;99.90
28608;DHT22;15802;45.654;13.804;2023-04-01T16:35:25;17.00;99.90
28608;DHT22;15802;45.654;13.804;2023-04-01T16:37:55;16.90;99.90
28608;DHT22;15802;45.654;13.804;2023-04-01T16:40:35;16.80;99.90
28608;DHT22;15802;45.654;13.804;2023-04-01T16:43:11;16.70;99.90
28608;DHT22;15802;45.654;13.804;2023-04-01T16:45:41;16.60;99.90
28608;DHT22;15802;45.654;13.804;2023-04-01T16:48:12;16.50;99.90
28608;DHT22;15802;45.654;13.804;2023-04-01T16:50:44;16.40;99.90
28608;DHT22;15802;45.654;13.804;2023-04-01T16:53:17;16.20;99.90
28608;DHT22;15802;45.654;13.804;2023-04-01T16:56:07;16.10;99.90
28608;DHT22;15802;45.654;13.804;2023-04-01T16:58:54;16.00;99.90
28608;DHT22;15802;45.654;13.804;2023-04-01T17:01:24;16.00;99.90
28608;DHT22;15802;45.654;13.804;2023-04-01T17:03:53;15.90;99.90
28608;DHT22;15802;45.654;13.804;2023-04-01T17:06:41;15.80;99.90
28608;DHT22;15802;45.654;13.804;2023-04-01T17:09:20;15.80;99.90
28608;DHT22;15802;45.654;13.804;2023-04-01T17:11:49;15.70;99.90
28608;DHT22;15802;45.654;13.804;2023-04-01T17:14:23;15.60;99.90
28608;DHT22;15802;45.654;13.804;2023-04-01T17:16:55;15.50;99.90
28608;DHT22;15802;45.654;13.804;2023-04-01T17:22:10;15.30;99.90
28608;DHT22;15802;45.654;13.804;2023-04-01T17:24:45;15.10;99.90
28608;DHT22;15802;45.654;13.804;2023-04-01T17:27:20;15.00;99.90
28608;DHT22;15802;45.654;13.804;2023-04-01T17:29:59;14.80;99.90
28608;DHT22;15802;45.654;13.804;2023-04-01T17:32:31;14.70;99.90
28608;DHT22;15802;45.654;13.804;2023-04-01T17:35:08;14.70;99.90
28608;DHT22;15802;45.654;13.804;2023-04-01T17:37:42;14.60;99.90
28608;DHT22;15802;45.654;13.804;2023-04-01T17:40:29;14.50;99.90
28608;DHT22;15802;45.654;13.804;2023-04-01T17:45:45;14.20;99.90
28608;DHT22;15802;45.654;13.804;2023-04-01T17:53:46;14.00;99.90
28608;DHT22;15802;45.654;13.804;2023-04-01T17:56:17;13.90;99.90
28608;DHT22;15802;45.654;13.804;2023-04-01T17:58:46;13.80;99.90
28608;DHT22;15802;45.654;13.804;2023-04-01T18:01:19;13.70;99.90
28608;DHT22;15802;45.654;13.804;2023-04-01T18:03:54;13.70;99.90
28608;DHT22;15802;45.654;13.804;2023-04-01T18:09:15;13.50;99.90
28608;DHT22;15802;45.654;13.804;2023-04-01T18:17:21;13.40;99.90
28608;DHT22;15802;45.654;13.804;2023-04-01T18:22:26;13.10;99.90
28608;DHT22;15802;45.654;13.804;2023-04-01T18:24:58;13.10;99.90
28608;DHT22;15802;45.654;13.804;2023-04-01T18:27:30;13.10;99.90
28608;DHT22;15802;45.654;13.804;2023-04-01T18:30:15;13.00;99.90
28608;DHT22;15802;45.654;13.804;2023-04-01T18:32:45;13.00;99.90
28608;DHT22;15802;45.654;13.804;2023-04-01T18:35:24;12.90;99.90
28608;DHT22;15802;45.654;13.804;2023-04-01T18:37:57;13.00;99.90
28608;DHT22;15802;45.654;13.804;2023-04-01T18:40:27;13.00;99.90
28608;DHT22;15802;45.654;13.804;2023-04-01T18:43:01;13.00;99.90
28608;DHT22;15802;45.654;13.804;2023-04-01T18:45:36;12.90;99.90
28608;DHT22;15802;45.654;13.804;2023-04-01T18:50:55;12.90;99.90
28608;DHT22;15802;45.654;13.804;2023-04-01T18:56:13;12.80;99.90
28608;DHT22;15802;45.654;13.804;2023-04-01T18:59:04;12.70;99.90
28608;DHT22;15802;45.654;13.804;2023-04-01T19:01:28;12.70;99.90